createdAt,value
2022-08-14T00:06:14.220Z,7.4
2022-08-14T00:12:37.705Z,7.4
2022-08-14T00:19:05.747Z,3.2
2022-08-14T00:25:15.910Z,3.2
2022-08-14T00:31:44.110Z,3
2022-08-14T00:37:58.916Z,3
2022-08-14T00:44:31.789Z,16.5
2022-08-14T00:50:41.996Z,16.5
2022-08-14T00:57:04.906Z,2.8
2022-08-14T01:03:25.146Z,2.8
2022-08-14T01:09:47.920Z,2.5
2022-08-14T01:16:07.924Z,2.5
2022-08-14T01:22:31.105Z,4.9
2022-08-14T01:28:56.700Z,4.9
2022-08-14T01:35:16.276Z,3.9
2022-08-14T01:41:33.922Z,3.9
2022-08-14T01:48:03.209Z,4
2022-08-14T01:54:16.975Z,4
2022-08-14T02:00:39.906Z,3.3
2022-08-14T02:07:00.048Z,3.3
2022-08-14T02:13:22.947Z,4.4
2022-08-14T02:19:42.893Z,4.4
2022-08-14T02:26:18.263Z,2.5
2022-08-14T02:32:30.175Z,2.5
2022-08-14T02:38:48.927Z,5.1
2022-08-14T02:45:09.175Z,5.1
2022-08-14T02:51:31.913Z,23.6
2022-08-14T02:57:57.939Z,23.6
2022-08-14T03:04:15.161Z,30.2
2022-08-14T03:10:34.915Z,30.2
2022-08-14T03:33:59.961Z,8.1
2022-08-14T03:40:21.904Z,8.1
2022-08-14T03:46:52.035Z,8.1
2022-08-14T03:53:05.060Z,3.2
2022-08-14T03:59:24.895Z,3.2
2022-08-14T04:05:48.651Z,3
2022-08-14T04:12:08.461Z,3
2022-08-14T04:18:30.918Z,12.7
2022-08-14T04:24:50.925Z,12.7
2022-08-14T04:31:15.364Z,3.4
2022-08-14T04:37:33.923Z,3.4
2022-08-14T04:43:56.914Z,4.7
2022-08-14T04:50:16.881Z,4.7
2022-08-14T04:56:39.947Z,5.5
2022-08-14T05:02:59.883Z,5.5
2022-08-14T05:09:22.898Z,5.1
2022-08-14T05:15:42.899Z,5.1
2022-08-14T05:22:16.264Z,6.1
2022-08-14T05:28:25.933Z,6.1
2022-08-14T05:34:48.905Z,4.1
2022-08-14T05:41:08.922Z,4.1
2022-08-14T05:47:34.277Z,4.6
2022-08-14T05:54:00.394Z,4.6
2022-08-14T06:00:24.608Z,6.3
2022-08-14T06:06:38.244Z,6.3
2022-08-14T06:12:58.197Z,9.8
2022-08-14T06:19:18.580Z,9.8
2022-08-14T06:25:42.976Z,4.4
2022-08-14T06:32:37.197Z,4.4
2022-08-14T06:38:25.923Z,6.9
2022-08-14T06:44:46.021Z,6.9
2022-08-14T06:51:09.127Z,5.7
2022-08-14T06:57:28.975Z,5.7
2022-08-14T07:03:51.933Z,18.3
2022-08-14T07:10:13.212Z,18.3
2022-08-14T07:16:34.926Z,3.9
2022-08-14T07:22:56.558Z,3.9
2022-08-14T07:29:19.842Z,4.6
2022-08-14T07:35:43.164Z,4.6
2022-08-14T07:42:00.908Z,5.5
2022-08-14T07:48:24.929Z,5.5
2022-08-14T07:54:43.884Z,5.1
2022-08-14T08:01:03.956Z,5.1
2022-08-14T08:07:29.698Z,5
2022-08-14T08:13:48.942Z,5
2022-08-14T08:20:11.530Z,6
2022-08-14T08:26:29.885Z,6
2022-08-14T08:32:52.937Z,6.5
2022-08-14T08:39:15.826Z,6.5
2022-08-14T08:45:35.878Z,3.7
2022-08-14T08:51:55.914Z,3.7
2022-08-14T09:15:58.374Z,3.6
2022-08-14T09:22:33.249Z,3.6
2022-08-14T09:28:40.893Z,4.3
2022-08-14T09:35:00.910Z,4.3
2022-08-14T09:41:23.878Z,5.7
2022-08-14T09:47:43.947Z,5.7
2022-08-14T09:54:13.252Z,3.4
2022-08-14T10:00:28.364Z,3.4
2022-08-14T10:06:49.909Z,5.2
2022-08-14T10:13:09.885Z,5.2
2022-08-14T10:19:35.257Z,3
2022-08-14T10:25:53.091Z,3
2022-08-14T10:32:17.491Z,2
2022-08-14T10:38:35.894Z,2
2022-08-14T10:44:58.882Z,3.4
2022-08-14T10:51:18.924Z,3.4
2022-08-14T10:57:41.881Z,3.1
2022-08-14T11:04:01.941Z,3.1
2022-08-14T11:10:25.041Z,2
2022-08-14T11:16:49.043Z,2
2022-08-14T11:23:08.543Z,3.6
2022-08-14T11:29:27.879Z,3.6
2022-08-14T11:35:50.889Z,2.7
2022-08-14T11:42:57.465Z,2.7
2022-08-14T11:48:59.041Z,3.3
2022-08-14T11:54:53.956Z,3.3
2022-08-14T12:01:16.927Z,1.6
2022-08-14T12:07:36.895Z,1.6
2022-08-14T12:13:59.899Z,2.7
2022-08-14T12:20:29.789Z,2.7
2022-08-14T12:26:42.936Z,4.6
2022-08-14T12:33:02.882Z,4.6
2022-08-14T12:39:25.944Z,2.9
2022-08-14T12:45:45.913Z,2.9
2022-08-14T12:52:12.251Z,1.3
2022-08-14T12:58:36.372Z,1.3
2022-08-14T13:04:51.887Z,1.2
2022-08-14T13:11:11.924Z,1.2
2022-08-14T13:17:38.332Z,1.7
2022-08-14T13:23:54.892Z,1.7
2022-08-14T13:30:21.460Z,1.6
2022-08-14T13:36:52.017Z,1.6
2022-08-14T13:43:00.891Z,1.2
2022-08-14T13:49:20.956Z,1.2
2022-08-14T13:55:43.884Z,1.1
2022-08-14T14:02:03.932Z,1.1
2022-08-14T14:08:42.985Z,2.7
2022-08-14T14:14:51.104Z,2.7
2022-08-14T14:21:09.931Z,2.4
2022-08-14T14:27:40.292Z,2.4
2022-08-14T14:33:52.946Z,1.9
2022-08-14T14:40:50.920Z,1.9
2022-08-14T14:46:37.128Z,2.6
2022-08-14T14:53:00.868Z,2.6
2022-08-14T14:59:18.896Z,0.7
2022-08-14T15:21:48.429Z,3.7
2022-08-14T15:28:07.886Z,3.7
2022-08-14T15:34:40.818Z,3.7
2022-08-14T15:40:51.386Z,3.7
2022-08-14T15:47:13.899Z,2.6
2022-08-14T15:53:33.919Z,2.6
2022-08-14T15:59:56.881Z,2.1
2022-08-14T16:06:17.813Z,2.1
2022-08-14T16:12:41.479Z,4.1
2022-08-14T16:18:59.881Z,4.1
2022-08-14T16:25:34.330Z,2.9
2022-08-14T16:31:43.012Z,2.9
2022-08-14T16:38:11.963Z,2.3
2022-08-14T16:44:32.151Z,2.3
2022-08-14T16:50:48.873Z,2.9
2022-08-14T16:57:08.913Z,2.9
2022-08-14T17:03:36.869Z,3
2022-08-14T17:09:51.919Z,3
2022-08-14T17:16:24.088Z,2
2022-08-14T17:22:34.894Z,2
2022-08-14T17:28:57.950Z,2.8
2022-08-14T17:35:17.885Z,2.8
2022-08-14T17:41:43.556Z,2.2
2022-08-14T17:48:00.906Z,2.2
2022-08-14T17:54:34.589Z,3.9
2022-08-14T18:00:43.944Z,3.9
2022-08-14T18:07:09.235Z,1.9
2022-08-14T18:13:50.485Z,1.9
2022-08-14T18:19:49.934Z,2.5
2022-08-14T18:26:35.931Z,2.5
2022-08-14T18:32:32.925Z,5.2
2022-08-14T18:38:55.479Z,5.2
2022-08-14T18:45:18.556Z,24.1
2022-08-14T18:51:45.476Z,24.1
2022-08-14T18:57:58.874Z,1.8
2022-08-14T19:04:18.922Z,1.8
2022-08-14T19:10:41.872Z,1.2
2022-08-14T19:17:01.863Z,1.2
2022-08-14T19:23:40.553Z,3.6
2022-08-14T19:29:47.709Z,3.6
2022-08-14T19:36:07.918Z,3.3
2022-08-14T19:42:30.679Z,3.3
2022-08-14T19:48:56.665Z,2.2
2022-08-14T19:55:10.912Z,2.2
2022-08-14T20:01:36.874Z,1.7
2022-08-14T20:08:00.089Z,1.7
2022-08-14T20:14:20.250Z,1.4
2022-08-14T20:20:36.885Z,1.4
2022-08-14T20:26:59.925Z,2.7
2022-08-14T20:33:19.864Z,2.7
2022-08-14T20:39:43.414Z,3.3
2022-08-14T20:46:02.905Z,3.3
2022-08-14T20:52:25.874Z,3
2022-08-14T20:58:45.961Z,3
2022-08-14T21:21:41.032Z,4.6
2022-08-14T21:27:56.750Z,4.6
2022-08-14T21:34:27.072Z,5.7
2022-08-14T21:40:41.365Z,5.7
2022-08-14T21:46:59.868Z,1.4
2022-08-14T21:53:19.903Z,1.4
2022-08-14T21:59:42.875Z,3.6
2022-08-14T22:22:39.913Z,6.1
2022-08-14T22:28:59.862Z,6.1
2022-08-14T22:35:23.415Z,6.1
2022-08-14T22:41:43.580Z,6.1
2022-08-14T22:48:10.704Z,4.7
2022-08-14T22:54:51.591Z,4.7
2022-08-14T23:00:48.872Z,6.1
2022-08-14T23:07:14.672Z,6.1
2022-08-14T23:13:31.884Z,3.8
2022-08-14T23:19:56.296Z,3.8
2022-08-14T23:26:47.606Z,3
2022-08-14T23:32:34.867Z,3
2022-08-14T23:38:57.911Z,5.1
2022-08-14T23:45:17.889Z,5.1
2022-08-14T23:51:40.878Z,3.3
2022-08-14T23:58:01.082Z,3.3
